Time;durP1;ratioP1;P1;durP2;ratioP2;P2;SDS_P1;SDS_P2;PMS_P1;PMS_P2;Temp;Humidity;BMP_temperature;BMP_pressure;BME280_temperature;BME280_humidity;BME280_pressure;Samples;Min_cycle;Max_cycle;Signal;HPM_P1;HPM_P2
2023/02/09 00:00:02;;;;;;;103.90;99.90;;;6.50;94.80;;;;;;5050255;28;20029;-78
2023/02/09 00:02:27;;;;;;;104.38;100.38;;;6.40;94.70;;;;;;5048791;28;20021;-78
2023/02/09 00:04:53;;;;;;;108.20;104.07;;;6.40;94.80;;;;;;5032507;28;20108;-78
2023/02/09 00:07:19;;;;;;;104.28;100.28;;;6.30;94.70;;;;;;5032078;28;20128;-78
2023/02/09 00:09:45;;;;;;;102.97;98.97;;;6.20;94.70;;;;;;5015938;28;20033;-78
2023/02/09 00:15:05;;;;;;;105.03;100.95;;;6.10;94.70;;;;;;5033142;28;20033;-78
2023/02/09 00:17:32;;;;;;;105.47;101.38;;;6.10;94.70;;;;;;5048837;28;20025;-77
2023/02/09 00:19:58;;;;;;;103.50;99.50;;;6.00;94.70;;;;;;5048608;28;20397;-78
2023/02/09 00:22:24;;;;;;;105.63;101.57;;;6.00;94.70;;;;;;5032093;28;20025;-78
2023/02/09 00:24:49;;;;;;;108.03;103.90;;;5.90;94.70;;;;;;5032174;28;20060;-78
2023/02/09 00:27:15;;;;;;;107.53;103.43;;;5.90;94.70;;;;;;5031709;28;20033;-78
2023/02/09 00:29:41;;;;;;;111.03;106.82;;;5.80;94.70;;;;;;5031632;28;20167;-78
2023/02/09 00:32:06;;;;;;;107.80;103.68;;;5.80;94.70;;;;;;5031805;28;20474;-78
2023/02/09 00:34:32;;;;;;;112.00;107.70;;;5.80;94.70;;;;;;5031688;28;20029;-78
2023/02/09 00:36:58;;;;;;;109.05;104.88;;;5.70;94.70;;;;;;5048297;28;20061;-78
2023/02/09 00:39:23;;;;;;;108.75;104.57;;;5.70;94.70;;;;;;5015171;28;20043;-78
2023/02/09 00:42:04;;;;;;;113.07;108.75;;;5.70;94.70;;;;;;5031615;28;20040;-78
2023/02/09 00:44:32;;;;;;;108.45;104.25;;;5.70;94.70;;;;;;5019233;28;20069;-78
2023/02/09 00:46:58;;;;;;;111.75;107.55;;;5.60;94.70;;;;;;5047791;28;20025;-78
2023/02/09 00:49:24;;;;;;;113.53;109.25;;;5.60;94.70;;;;;;5031316;28;20048;-78
2023/02/09 00:51:49;;;;;;;113.63;109.32;;;5.60;94.70;;;;;;5031381;28;20393;-78
2023/02/09 00:54:15;;;;;;;115.90;111.50;;;5.60;94.70;;;;;;5048595;28;20026;-78
2023/02/09 00:56:42;;;;;;;112.40;108.20;;;5.60;94.70;;;;;;5047842;28;20102;-78
2023/02/09 00:59:08;;;;;;;111.78;107.57;;;5.50;94.70;;;;;;5031290;28;20521;-78
2023/02/09 01:01:34;;;;;;;115.25;110.93;;;5.50;94.70;;;;;;5014966;28;20082;-78
2023/02/09 01:04:00;;;;;;;118.35;113.90;;;5.50;94.70;;;;;;5048034;28;20033;-78
2023/02/09 01:06:25;;;;;;;113.40;109.20;;;5.50;94.70;;;;;;5014875;28;20039;-78
2023/02/09 01:08:51;;;;;;;113.95;109.65;;;5.40;94.70;;;;;;5030940;28;20036;-78
2023/02/09 01:11:17;;;;;;;116.60;112.20;;;5.40;94.70;;;;;;5049142;28;20036;-78
2023/02/09 01:13:44;;;;;;;113.38;109.07;;;5.40;94.60;;;;;;5031207;28;20056;-78
2023/02/09 01:16:11;;;;;;;;;;;5.40;94.60;;;;;;5048003;28;20563;-78
2023/02/09 01:18:37;;;;;;;111.05;106.85;;;5.30;94.60;;;;;;5048877;28;20280;-78
2023/02/09 01:21:15;;;;;;;108.95;104.85;;;5.40;94.60;;;;;;5047550;28;20044;-78
2023/02/09 01:23:41;;;;;;;112.28;108.07;;;5.30;94.60;;;;;;5048884;28;20100;-78
2023/02/09 01:26:08;;;;;;;108.60;104.50;;;5.30;94.60;;;;;;5030879;28;20463;-78
2023/02/09 01:28:35;;;;;;;108.72;104.63;;;5.30;94.60;;;;;;5047038;28;20112;-78
2023/02/09 01:31:00;;;;;;;111.95;107.75;;;5.20;94.50;;;;;;5048680;28;20463;-78
2023/02/09 01:33:26;;;;;;;110.35;106.18;;;5.20;94.60;;;;;;5030724;28;20112;-78
2023/02/09 01:36:04;;;;;;;110.10;105.95;;;5.20;94.60;;;;;;5048677;28;20036;-78
2023/02/09 01:38:30;;;;;;;111.30;107.10;;;5.20;94.60;;;;;;5047216;28;20086;-78
2023/02/09 01:40:56;;;;;;;111.28;107.07;;;5.20;94.60;;;;;;5030370;28;20029;-78
2023/02/09 01:43:21;;;;;;;112.63;108.32;;;5.20;94.60;;;;;;5047207;28;20041;-78
2023/02/09 01:45:55;;;;;;;110.43;106.22;;;5.10;94.60;;;;;;5046919;28;20033;-78
2023/02/09 01:48:25;;;;;;;110.68;106.47;;;5.10;94.60;;;;;;5030586;28;20493;-78
2023/02/09 01:50:53;;;;;;;110.25;106.05;;;5.10;94.60;;;;;;5047009;28;20032;-78
2023/02/09 01:53:20;;;;;;;112.72;108.45;;;5.10;94.60;;;;;;5046913;28;20021;-78
2023/02/09 01:55:49;;;;;;;;;;;5.00;94.60;;;;;;5014075;28;20508;-78
2023/02/09 01:58:17;;;;;;;107.65;103.57;;;5.00;94.60;;;;;;5047052;28;20277;-78
2023/02/09 02:00:44;;;;;;;110.00;105.80;;;5.00;94.60;;;;;;5046687;28;20055;-78
2023/02/09 02:03:21;;;;;;;111.78;107.57;;;5.00;94.60;;;;;;5030355;28;20037;-78
2023/02/09 02:05:52;;;;;;;110.28;106.07;;;5.00;94.60;;;;;;5047857;28;20118;-78
2023/02/09 02:08:20;;;;;;;113.30;109.00;;;4.90;94.50;;;;;;5046542;28;20428;-78
2023/02/09 02:10:45;;;;;;;114.15;109.85;;;4.90;94.70;;;;;;5046633;28;20028;-78
2023/02/09 02:13:11;;;;;;;115.00;110.70;;;4.90;94.50;;;;;;5029905;28;20025;-78
2023/02/09 02:15:52;;;;;;;110.65;106.45;;;4.80;94.50;;;;;;5029815;28;20029;-78
2023/02/09 02:18:39;;;;;;;113.68;109.38;;;4.80;94.50;;;;;;5046553;28;20074;-78
2023/02/09 02:21:10;;;;;;;110.20;106.00;;;4.70;94.50;;;;;;5046493;28;20024;-78
2023/02/09 02:23:48;;;;;;;112.95;108.68;;;4.70;94.50;;;;;;5046399;28;20039;-77
2023/02/09 02:26:45;;;;;;;113.18;108.88;;;4.70;94.50;;;;;;5046367;28;20032;-78
2023/02/09 02:29:42;;;;;;;111.50;107.30;;;4.60;94.50;;;;;;5046671;28;20377;-78
2023/02/09 02:32:29;;;;;;;109.15;105.03;;;4.60;94.50;;;;;;5046541;28;20033;-78
2023/02/09 02:35:09;;;;;;;110.82;106.63;;;4.50;94.40;;;;;;5046531;28;20232;-78
2023/02/09 02:38:06;;;;;;;107.30;103.28;;;4.50;94.40;;;;;;5046506;28;20024;-78
2023/02/09 02:40:59;;;;;;;112.97;108.72;;;4.40;94.40;;;;;;5049181;28;20029;-78
2023/02/09 02:43:53;;;;;;;105.20;101.25;;;4.40;94.40;;;;;;5051935;28;20442;-78
2023/02/09 02:46:42;;;;;;;107.88;103.82;;;4.30;94.40;;;;;;5051680;28;20394;-78
2023/02/09 02:49:23;;;;;;;106.78;102.78;;;4.30;94.40;;;;;;5051587;28;20048;-78
2023/02/09 02:51:54;;;;;;;103.35;99.45;;;4.30;94.40;;;;;;5050380;28;20052;-77
2023/02/09 02:54:34;;;;;;;105.63;101.72;;;4.20;94.40;;;;;;5050285;28;20485;-78
2023/02/09 02:57:04;;;;;;;105.22;101.22;;;4.20;94.40;;;;;;5051311;28;20135;-78
2023/02/09 02:59:35;;;;;;;104.90;100.95;;;4.20;94.50;;;;;;5050349;28;20033;-78
2023/02/09 03:02:06;;;;;;;107.18;103.18;;;4.20;94.50;;;;;;5051422;28;20428;-77
2023/02/09 03:04:34;;;;;;;106.68;102.68;;;4.20;94.40;;;;;;5050000;28;20039;-78
2023/02/09 03:07:03;;;;;;;107.95;103.85;;;4.20;94.40;;;;;;5051210;28;20033;-78
2023/02/09 03:09:28;;;;;;;105.25;101.25;;;4.10;94.40;;;;;;5033640;28;20033;-78
2023/02/09 03:12:01;;;;;;;103.82;99.93;;;4.10;94.30;;;;;;5033409;28;20025;-78
2023/02/09 03:14:56;;;;;;;106.60;102.53;;;4.10;94.30;;;;;;5051225;28;20027;-78
2023/02/09 03:17:42;;;;;;;102.05;98.18;;;4.10;94.40;;;;;;5050119;28;20043;-77
2023/02/09 03:20:28;;;;;;;104.50;100.60;;;4.00;94.30;;;;;;5049797;28;20031;-78
2023/02/09 03:23:01;;;;;;;104.43;100.53;;;4.00;94.30;;;;;;5050607;28;20029;-78
2023/02/09 03:25:31;;;;;;;98.40;94.68;;;3.90;94.30;;;;;;5049704;28;20028;-78
2023/02/09 03:28:07;;;;;;;99.10;95.40;;;3.90;94.30;;;;;;5049467;28;20499;-78
2023/02/09 03:30:34;;;;;;;99.43;95.72;;;3.90;94.40;;;;;;5049623;28;20036;-78
2023/02/09 03:33:02;;;;;;;99.32;95.63;;;3.90;94.40;;;;;;5049544;28;20037;-78
2023/02/09 03:35:37;;;;;;;100.88;97.13;;;3.90;94.50;;;;;;5049504;28;20397;-78
2023/02/09 03:38:06;;;;;;;102.38;98.57;;;3.90;94.50;;;;;;5050835;28;20029;-78
2023/02/09 03:40:32;;;;;;;100.22;96.53;;;3.90;94.40;;;;;;5050758;28;20029;-78
2023/02/09 03:42:58;;;;;;;101.75;97.95;;;3.90;94.40;;;;;;5032818;28;20037;-79
2023/02/09 03:45:24;;;;;;;104.15;100.25;;;3.90;94.40;;;;;;5032866;28;20033;-78
2023/02/09 03:47:50;;;;;;;105.43;101.53;;;3.90;94.40;;;;;;5016240;28;20048;-78
2023/02/09 03:50:16;;;;;;;100.22;96.53;;;3.90;94.40;;;;;;5015935;28;20040;-78
2023/02/09 03:52:41;;;;;;;100.80;97.00;;;3.80;94.30;;;;;;5049131;28;20036;-78
2023/02/09 03:55:07;;;;;;;100.45;96.65;;;3.80;94.30;;;;;;5032765;28;20474;-77
2023/02/09 03:57:34;;;;;;;101.30;97.50;;;3.80;94.30;;;;;;5032505;28;20056;-78
2023/02/09 04:00:00;;;;;;;102.50;98.70;;;3.80;94.30;;;;;;5032626;28;20096;-78
2023/02/09 04:02:28;;;;;;;102.35;98.57;;;3.70;94.30;;;;;;5049012;28;20075;-77
2023/02/09 04:04:54;;;;;;;104.53;100.68;;;3.70;94.30;;;;;;5048996;28;20087;-78
2023/02/09 04:07:20;;;;;;;100.55;96.85;;;3.70;94.30;;;;;;5032446;28;20421;-78
2023/02/09 04:09:45;;;;;;;101.70;97.95;;;3.60;94.30;;;;;;5032369;28;20070;-78
2023/02/09 04:12:11;;;;;;;101.82;98.05;;;3.60;94.30;;;;;;5032299;28;20029;-78
2023/02/09 04:14:37;;;;;;;102.95;99.15;;;3.60;94.30;;;;;;5015952;28;20083;-78
2023/02/09 04:17:02;;;;;;;102.60;98.80;;;3.60;94.30;;;;;;5032240;28;20028;-78
2023/02/09 04:19:28;;;;;;;102.50;98.70;;;3.60;94.30;;;;;;5032050;28;20119;-78
2023/02/09 04:21:54;;;;;;;100.30;96.60;;;3.60;94.40;;;;;;5015609;28;20478;-78
2023/02/09 04:24:20;;;;;;;103.05;99.25;;;3.60;94.40;;;;;;5048738;28;20501;-78
2023/02/09 04:26:46;;;;;;;;;;;3.60;94.40;;;;;;5032607;28;20040;-78
2023/02/09 04:29:11;;;;;;;101.15;97.45;;;3.60;94.40;;;;;;5048333;28;19989;-78
2023/02/09 04:31:37;;;;;;;104.18;100.38;;;3.50;94.30;;;;;;5015734;28;20021;-78
2023/02/09 04:34:03;;;;;;;101.38;97.68;;;3.50;94.30;;;;;;5031810;28;20029;-78
2023/02/09 04:36:29;;;;;;;104.03;100.22;;;3.50;94.30;;;;;;5031781;28;20151;-78
2023/02/09 04:38:54;;;;;;;103.68;99.88;;;3.50;94.30;;;;;;5049889;28;20090;-78
2023/02/09 04:41:20;;;;;;;98.97;95.38;;;3.50;94.40;;;;;;5048510;28;20588;-78
2023/02/09 04:43:46;;;;;;;97.07;93.53;;;3.50;94.40;;;;;;5015230;28;20398;-78
2023/02/09 04:46:17;;;;;;;102.45;98.75;;;3.50;94.30;;;;;;5048248;28;20037;-78
2023/02/09 04:48:43;;;;;;;99.43;95.82;;;3.50;94.40;;;;;;5031684;28;20056;-78
2023/02/09 04:51:10;;;;;;;97.28;93.70;;;3.50;94.40;;;;;;5031774;28;20070;-78
2023/02/09 04:53:35;;;;;;;;;;;3.50;94.40;;;;;;5048537;28;20166;-78
2023/02/09 04:56:01;;;;;;;97.10;93.60;;;3.40;94.60;;;;;;5049335;28;19909;-77
2023/02/09 05:01:17;;;;;;;94.10;90.70;;;3.40;94.30;;;;;;5034104;28;20063;-78
2023/02/09 05:03:42;;;;;;;101.15;97.45;;;3.40;94.30;;;;;;5047126;28;20029;-78
2023/02/09 05:06:08;;;;;;;97.95;94.38;;;3.40;94.30;;;;;;5047710;28;20180;-77
2023/02/09 05:08:34;;;;;;;89.88;86.57;;;3.40;94.30;;;;;;5031201;28;20119;-78
2023/02/09 05:11:00;;;;;;;91.97;88.60;;;3.40;94.30;;;;;;5031268;28;20140;-78
2023/02/09 05:13:26;;;;;;;96.75;93.25;;;3.40;94.30;;;;;;5047755;28;20021;-78
2023/02/09 05:15:52;;;;;;;;;;;3.30;94.30;;;;;;5049273;28;20060;-78
2023/02/09 05:18:20;;;;;;;92.70;89.30;;;3.30;94.30;;;;;;5047629;28;19904;-78
2023/02/09 05:20:46;;;;;;;94.65;91.18;;;3.30;94.20;;;;;;5031261;28;20064;-78
2023/02/09 05:23:12;;;;;;;91.45;88.13;;;3.30;94.20;;;;;;5030856;28;20082;-78
2023/02/09 05:25:38;;;;;;;91.47;88.07;;;3.30;94.30;;;;;;5031299;28;20033;-78
2023/02/09 05:28:04;;;;;;;91.53;88.13;;;3.30;94.30;;;;;;5047339;28;20484;-78
2023/02/09 05:30:30;;;;;;;90.35;87.05;;;3.20;94.20;;;;;;5047375;28;20083;-79
2023/02/09 05:32:57;;;;;;;91.63;88.25;;;3.20;94.20;;;;;;5030949;28;20082;-78
2023/02/09 05:35:23;;;;;;;96.93;93.35;;;3.20;94.20;;;;;;5047337;28;20071;-78
2023/02/09 05:37:48;;;;;;;92.60;89.20;;;3.20;94.20;;;;;;5047200;28;20056;-77
2023/02/09 05:40:14;;;;;;;94.03;90.57;;;3.20;94.20;;;;;;5047419;28;20024;-78
2023/02/09 05:42:40;;;;;;;92.35;88.95;;;3.10;94.20;;;;;;5047066;28;20331;-78
2023/02/09 05:45:06;;;;;;;92.28;88.88;;;3.10;94.20;;;;;;5014047;28;20032;-78
2023/02/09 05:47:32;;;;;;;;;;;3.10;94.20;;;;;;5030636;28;20032;-78
2023/02/09 05:49:58;;;;;;;90.97;87.68;;;3.00;94.20;;;;;;5046788;28;19913;-78
2023/02/09 05:52:24;;;;;;;91.25;87.95;;;3.00;94.10;;;;;;5013773;28;20033;-77
2023/02/09 05:54:49;;;;;;;92.80;89.40;;;3.00;94.10;;;;;;5030176;28;20058;-77
2023/02/09 05:57:16;;;;;;;94.53;91.05;;;2.90;94.10;;;;;;5030199;28;20071;-77
2023/02/09 05:59:42;;;;;;;91.03;87.72;;;2.90;94.10;;;;;;5048041;28;20029;-78
2023/02/09 06:02:08;;;;;;;88.97;85.75;;;2.90;94.20;;;;;;5047937;28;20392;-77
2023/02/09 06:04:34;;;;;;;87.75;84.55;;;2.80;94.20;;;;;;5046651;28;20037;-78
2023/02/09 06:07:00;;;;;;;87.70;84.50;;;2.90;94.20;;;;;;5030239;28;20037;-77
2023/02/09 06:09:26;;;;;;;90.50;87.20;;;2.80;94.20;;;;;;5013759;28;20111;-77
2023/02/09 06:11:52;;;;;;;90.00;86.70;;;2.80;94.20;;;;;;5047941;28;20025;-78
2023/02/09 06:14:18;;;;;;;86.70;83.50;;;2.80;94.20;;;;;;5029279;28;20043;-77
2023/02/09 06:16:44;;;;;;;91.55;88.15;;;2.80;94.20;;;;;;5013092;28;20057;-77
2023/02/09 06:19:15;;;;;;;87.90;84.70;;;2.80;94.20;;;;;;5046350;28;20061;-78
2023/02/09 06:21:41;;;;;;;83.15;80.07;;;2.80;94.20;;;;;;5047556;28;20029;-77
2023/02/09 06:24:06;;;;;;;86.13;82.97;;;2.80;94.20;;;;;;5030045;28;20041;-78
2023/02/09 06:26:32;;;;;;;82.85;79.80;;;2.80;94.20;;;;;;5013403;28;20120;-78
2023/02/09 06:28:58;;;;;;;81.00;78.00;;;2.80;94.20;;;;;;5046135;28;20033;-77
2023/02/09 06:31:24;;;;;;;79.38;76.47;;;2.80;94.20;;;;;;5029425;28;20083;-77
2023/02/09 06:33:50;;;;;;;82.13;79.13;;;2.80;94.30;;;;;;5029894;28;20489;-77
2023/02/09 06:36:16;;;;;;;;;;;2.80;94.30;;;;;;5030066;28;20469;-77
2023/02/09 06:38:41;;;;;;;73.70;71.00;;;2.80;94.30;;;;;;5029957;28;19916;-78
2023/02/09 06:41:07;;;;;;;73.18;70.47;;;2.80;94.20;;;;;;5029753;28;20044;-78
2023/02/09 06:43:33;;;;;;;69.63;67.03;;;2.80;94.20;;;;;;5046133;28;20060;-78
2023/02/09 06:46:05;;;;;;;65.47;63.08;;;2.90;94.30;;;;;;5045957;28;20111;-78
2023/02/09 06:48:31;;;;;;;62.17;59.88;;;2.90;94.30;;;;;;5045974;28;20033;-78
2023/02/09 06:50:56;;;;;;;57.30;55.20;;;3.00;94.40;;;;;;5046214;28;20524;-78
2023/02/09 06:53:22;;;;;;;57.00;54.90;;;3.10;94.40;;;;;;5046363;28;20033;-77
2023/02/09 06:55:48;;;;;;;51.80;49.90;;;3.20;94.60;;;;;;5046184;28;20489;-77
2023/02/09 06:58:13;;;;;;;49.67;47.85;;;3.30;94.40;;;;;;5029446;28;20396;-77
2023/02/09 07:00:39;;;;;;;49.60;47.80;;;3.30;94.40;;;;;;5013254;28;20048;-78
2023/02/09 07:03:05;;;;;;;47.90;46.10;;;3.40;94.40;;;;;;5045862;28;20029;-78
2023/02/09 07:05:31;;;;;;;49.13;47.33;;;3.30;94.30;;;;;;5029411;28;20043;-79
2023/02/09 07:07:56;;;;;;;51.38;49.47;;;3.30;94.30;;;;;;5029771;28;20500;-79
2023/02/09 07:10:22;;;;;;;47.55;45.75;;;3.30;94.20;;;;;;5012960;28;20481;-79
2023/02/09 07:12:48;;;;;;;50.40;48.50;;;3.20;94.20;;;;;;5029534;28;20036;-79
2023/02/09 07:15:14;;;;;;;48.28;46.47;;;3.20;94.20;;;;;;5047307;28;20065;-79
2023/02/09 07:17:41;;;;;;;48.60;46.80;;;3.20;94.30;;;;;;5046318;28;20095;-78
2023/02/09 07:20:08;;;;;;;43.53;41.92;;;3.10;94.30;;;;;;5029313;28;20036;-78
2023/02/09 07:22:34;;;;;;;43.05;41.45;;;3.10;94.30;;;;;;5046756;28;20031;-78
2023/02/09 07:25:00;;;;;;;42.67;41.08;;;3.10;94.30;;;;;;5047242;28;20043;-78
2023/02/09 07:27:26;;;;;;;45.30;43.60;;;3.10;94.30;;;;;;5016564;28;20033;-79
2023/02/09 07:29:52;;;;;;;43.38;41.78;;;3.10;94.30;;;;;;5049165;28;20064;-74
2023/02/09 07:32:18;;;;;;;43.85;42.25;;;3.00;94.30;;;;;;5049359;28;20496;-79
2023/02/09 07:34:43;;;;;;;44.28;42.67;;;3.00;94.30;;;;;;5032814;28;20148;-77
2023/02/09 07:37:09;;;;;;;39.83;38.33;;;3.00;94.30;;;;;;5032605;28;20078;-79
2023/02/09 07:39:35;;;;;;;37.03;35.63;;;3.00;94.30;;;;;;5049020;28;20113;-78
2023/02/09 07:42:01;;;;;;;35.20;33.90;;;3.00;94.30;;;;;;5032316;28;20032;-80
2023/02/09 07:44:26;;;;;;;36.70;35.30;;;3.00;94.30;;;;;;5032358;28;20029;-79
2023/02/09 07:46:52;;;;;;;34.47;33.17;;;3.00;94.40;;;;;;5032516;28;20377;-79
2023/02/09 07:49:18;;;;;;;37.65;36.25;;;3.00;94.40;;;;;;5049302;28;20033;-79
2023/02/09 07:51:44;;;;;;;34.75;33.45;;;3.00;94.40;;;;;;5032952;28;20512;-79
2023/02/09 07:54:12;;;;;;;32.58;31.38;;;3.00;94.40;;;;;;5032479;28;20033;-78
2023/02/09 07:56:39;;;;;;;32.08;30.88;;;3.00;94.40;;;;;;5048538;28;20486;-78
2023/02/09 07:59:06;;;;;;;30.60;29.40;;;3.00;94.40;;;;;;5032836;28;20477;-79
2023/02/09 08:01:32;;;;;;;30.98;29.77;;;3.00;94.40;;;;;;5050130;28;20037;-78
2023/02/09 08:03:59;;;;;;;31.40;30.20;;;3.00;94.40;;;;;;5048744;28;20029;-78
2023/02/09 08:06:31;;;;;;;29.30;28.20;;;3.10;94.50;;;;;;5048319;28;20120;-80
2023/02/09 08:08:59;;;;;;;29.40;28.30;;;3.10;94.50;;;;;;5048383;28;20048;-79
2023/02/09 08:11:47;;;;;;;27.58;26.48;;;3.20;94.50;;;;;;5031922;28;20060;-77
2023/02/09 08:14:17;;;;;;;25.77;24.77;;;3.20;94.50;;;;;;5050724;28;20386;-79
2023/02/09 08:16:44;;;;;;;26.05;25.05;;;3.30;94.60;;;;;;5048557;28;20630;-78
2023/02/09 08:19:11;;;;;;;;;;;3.40;94.60;;;;;;5048668;28;20061;-79
2023/02/09 08:21:40;;;;;;;24.83;23.83;;;3.60;94.60;;;;;;5050001;28;20306;-77
2023/02/09 08:24:08;;;;;;;23.13;22.23;;;3.70;94.60;;;;;;5048237;28;20036;-78
2023/02/09 08:26:34;;;;;;;22.23;21.33;;;3.90;94.60;;;;;;5048130;28;20028;-79
2023/02/09 08:29:00;;;;;;;;;;;4.00;94.60;;;;;;5049920;28;20068;-79
2023/02/09 08:31:25;;;;;;;20.65;19.85;;;4.10;94.60;;;;;;5048147;28;19942;-77
2023/02/09 08:33:51;;;;;;;19.02;18.23;;;4.20;94.50;;;;;;5032007;28;20044;-78
2023/02/09 08:36:18;;;;;;;21.13;20.33;;;4.40;94.50;;;;;;5049444;28;20070;-77
2023/02/09 08:38:44;;;;;;;18.02;17.33;;;4.40;94.50;;;;;;5048011;28;20061;-77
2023/02/09 08:41:12;;;;;;;19.40;18.60;;;4.60;94.50;;;;;;5047949;28;20091;-77
2023/02/09 08:43:38;;;;;;;19.13;18.33;;;4.60;94.50;;;;;;5047889;28;20029;-77
2023/02/09 08:46:07;;;;;;;18.20;17.45;;;4.70;94.50;;;;;;5047802;28;20135;-78
2023/02/09 08:48:35;;;;;;;17.90;17.20;;;4.70;94.50;;;;;;5047305;28;20056;-77
2023/02/09 08:51:00;;;;;;;18.40;17.60;;;4.80;94.50;;;;;;5031068;28;20439;-78
2023/02/09 08:53:26;;;;;;;19.38;18.58;;;4.90;94.60;;;;;;5030736;28;20021;-78
2023/02/09 08:55:53;;;;;;;18.60;17.80;;;5.00;94.60;;;;;;5014835;28;20481;-78
2023/02/09 08:58:18;;;;;;;18.80;18.00;;;5.00;94.60;;;;;;5047451;28;20063;-78
2023/02/09 09:00:44;;;;;;;17.02;16.33;;;5.10;94.60;;;;;;5030751;28;20127;-77
2023/02/09 09:03:10;;;;;;;16.73;16.02;;;5.10;94.60;;;;;;5048743;28;20045;-77
2023/02/09 09:05:36;;;;;;;14.85;14.25;;;5.20;94.60;;;;;;5047268;28;20111;-78
2023/02/09 09:08:02;;;;;;;15.45;14.77;;;5.30;94.70;;;;;;5031343;28;20029;-77
2023/02/09 09:10:28;;;;;;;;;;;5.30;94.60;;;;;;5047945;28;20025;-77
2023/02/09 09:12:54;;;;;;;14.45;13.85;;;5.40;94.60;;;;;;5031121;28;19958;-77
2023/02/09 09:15:20;;;;;;;14.77;14.18;;;5.50;94.60;;;;;;5036768;28;20033;-80
2023/02/09 09:17:45;;;;;;;14.68;14.07;;;5.60;94.70;;;;;;5036271;28;20021;-78
2023/02/09 09:20:11;;;;;;;14.25;13.65;;;5.60;94.60;;;;;;5037781;28;20033;-79
2023/02/09 09:22:37;;;;;;;13.77;13.18;;;5.70;94.60;;;;;;5040300;28;20040;-78
2023/02/09 09:25:03;;;;;;;13.65;13.05;;;5.70;94.60;;;;;;5021110;28;20033;-79
2023/02/09 09:27:31;;;;;;;12.52;11.93;;;5.80;94.70;;;;;;5037844;28;20033;-78
2023/02/09 09:29:57;;;;;;;13.00;12.40;;;5.90;94.70;;;;;;5017216;28;20022;-79
2023/02/09 09:32:24;;;;;;;11.90;11.40;;;5.90;94.60;;;;;;5032163;28;20401;-78
2023/02/09 09:34:54;;;;;;;10.95;10.45;;;5.90;94.70;;;;;;5039955;28;20026;-79
2023/02/09 09:37:21;;;;;;;10.43;9.93;;;6.00;94.70;;;;;;5031110;28;20095;-79
2023/02/09 09:39:47;;;;;;;8.32;7.93;;;6.30;95.20;;;;;;5039479;28;20484;-79
2023/02/09 09:42:24;;;;;;;;;;;6.70;95.40;;;;;;5045354;28;20127;-79
2023/02/09 09:44:49;;;;;;;5.90;5.60;;;7.30;95.70;;;;;;5049499;28;19909;-79
2023/02/09 09:47:19;;;;;;;6.05;5.75;;;7.80;95.40;;;;;;5049585;28;20039;-78
2023/02/09 09:49:46;;;;;;;5.88;5.57;;;8.00;95.00;;;;;;5048303;28;20394;-78
2023/02/09 09:52:30;;;;;;;6.43;6.03;;;8.00;94.60;;;;;;5033979;28;20029;-78
2023/02/09 09:54:59;;;;;;;6.53;6.13;;;7.80;94.50;;;;;;5048607;28;20025;-78
2023/02/09 09:57:27;;;;;;;6.65;6.25;;;7.70;94.60;;;;;;5047395;28;20041;-78
2023/02/09 09:59:55;;;;;;;6.90;6.50;;;7.60;94.70;;;;;;5049474;28;20087;-78
2023/02/09 10:02:31;;;;;;;5.80;5.50;;;7.60;94.80;;;;;;5049304;28;20025;-78
2023/02/09 10:05:03;;;;;;;;;;;7.60;94.80;;;;;;5048322;28;20075;-77
2023/02/09 10:07:32;;;;;;;5.10;4.80;;;7.60;94.90;;;;;;5048053;28;19948;-78
2023/02/09 10:10:03;;;;;;;4.60;4.30;;;7.90;95.30;;;;;;5048321;28;20031;-78
2023/02/09 10:12:40;;;;;;;3.80;3.50;;;8.30;95.40;;;;;;5048208;28;20028;-78
2023/02/09 10:15:35;;;;;;;3.47;3.17;;;8.60;95.30;;;;;;5049289;28;20351;-79
2023/02/09 10:18:01;;;;;;;2.13;1.92;;;9.00;95.40;;;;;;5048819;28;20032;-79
2023/02/09 10:20:41;;;;;;;1.95;1.85;;;9.10;95.10;;;;;;5047770;28;20078;-78
2023/02/09 10:23:15;;;;;;;1.83;1.73;;;9.10;95.00;;;;;;5049554;28;20048;-78
2023/02/09 10:25:59;;;;;;;1.45;1.35;;;9.10;95.00;;;;;;5038267;28;20042;-78
2023/02/09 10:28:31;;;;;;;1.58;1.48;;;9.00;94.90;;;;;;5028626;28;20060;-76
2023/02/09 10:31:00;;;;;;;1.55;1.45;;;8.80;94.80;;;;;;5029215;28;20439;-76
2023/02/09 10:33:29;;;;;;;1.30;1.20;;;8.80;95.00;;;;;;5042590;28;20071;-75
2023/02/09 10:36:04;;;;;;;1.30;1.20;;;8.60;94.90;;;;;;5042496;28;20021;-77
2023/02/09 10:38:31;;;;;;;0.80;0.80;;;8.50;95.00;;;;;;5041892;28;20083;-75
2023/02/09 10:40:59;;;;;;;0.30;0.30;;;8.90;96.00;;;;;;5016896;28;20026;-74
2023/02/09 10:43:32;;;;;;;0.10;0.10;;;9.80;96.70;;;;;;5035753;28;20054;-74
2023/02/09 10:46:01;;;;;;;0.10;0.10;;;10.80;96.70;;;;;;5042261;28;20053;-79
2023/02/09 10:48:38;;;;;;;0.00;0.00;;;11.60;96.40;;;;;;5048925;28;20434;-77
2023/02/09 10:51:27;;;;;;;0.00;0.00;;;12.40;96.30;;;;;;5048827;28;20017;-77
2023/02/09 10:54:03;;;;;;;0.00;0.00;;;13.10;96.20;;;;;;5047265;28;20028;-76
2023/02/09 10:56:41;;;;;;;0.00;0.00;;;13.70;96.20;;;;;;5036277;28;20029;-76
2023/02/09 10:59:21;;;;;;;0.00;0.00;;;14.00;95.50;;;;;;5047374;28;20043;-77
2023/02/09 11:01:59;;;;;;;0.00;0.00;;;13.50;94.80;;;;;;5049159;28;20033;-76
2023/02/09 11:04:36;;;;;;;0.00;0.00;;;12.90;94.70;;;;;;5052184;28;20032;-75
2023/02/09 11:07:13;;;;;;;0.00;0.00;;;12.30;94.80;;;;;;5052035;28;20029;-74
2023/02/09 11:09:44;;;;;;;0.10;0.10;;;11.80;95.00;;;;;;5051720;28;20481;-75
2023/02/09 11:12:11;;;;;;;0.00;0.00;;;11.90;96.20;;;;;;5052186;28;20514;-77
2023/02/09 11:14:37;;;;;;;0.00;0.00;;;12.40;96.40;;;;;;5050618;28;20048;-75
2023/02/09 11:17:08;;;;;;;0.00;0.00;;;13.00;96.60;;;;;;5052543;28;20091;-75
2023/02/09 11:19:52;;;;;;;0.00;0.00;;;13.60;96.50;;;;;;5051427;28;20461;-75
2023/02/09 11:22:36;;;;;;;0.00;0.00;;;14.10;96.50;;;;;;5051438;28;20428;-74
2023/02/09 11:25:36;;;;;;;0.00;0.00;;;14.70;96.30;;;;;;5051589;28;20071;-74
2023/02/09 11:28:30;;;;;;;0.00;0.00;;;15.20;96.30;;;;;;5052109;28;20349;-77
2023/02/09 11:31:22;;;;;;;0.00;0.00;;;15.80;96.50;;;;;;5051722;28;20021;-82
2023/02/09 11:34:13;;;;;;;0.00;0.00;;;16.40;96.50;;;;;;5049964;28;20021;-73
2023/02/09 11:37:26;;;;;;;0.00;0.00;;;16.70;96.40;;;;;;5052055;28;20017;-77
2023/02/09 11:40:20;;;;;;;0.00;0.00;;;17.10;96.30;;;;;;5049243;28;20029;-76
2023/02/09 11:43:10;;;;;;;0.00;0.00;;;17.20;96.20;;;;;;5052290;28;20044;-74
2023/02/09 11:45:42;;;;;;;0.00;0.00;;;17.40;96.30;;;;;;5050559;28;20040;-73
2023/02/09 11:48:12;;;;;;;0.00;0.00;;;17.60;96.30;;;;;;5051771;28;20044;-72
2023/02/09 11:50:55;;;;;;;0.00;0.00;;;17.70;96.30;;;;;;5052196;28;20021;-75
2023/02/09 11:53:29;;;;;;;0.00;0.00;;;17.70;96.20;;;;;;5050097;28;20032;-78
2023/02/09 11:55:57;;;;;;;0.00;0.00;;;17.60;96.20;;;;;;5050697;28;20369;-77
2023/02/09 11:58:39;;;;;;;0.00;0.00;;;17.70;96.50;;;;;;5051119;28;20041;-77
2023/02/09 12:01:34;;;;;;;0.00;0.00;;;17.90;96.60;;;;;;5050116;28;20025;-67
2023/02/09 12:04:15;;;;;;;0.00;0.00;;;18.00;96.40;;;;;;5050228;28;20087;-78
2023/02/09 12:06:47;;;;;;;0.00;0.00;;;17.80;96.20;;;;;;5051332;28;20496;-79
2023/02/09 12:09:36;;;;;;;0.00;0.00;;;17.60;96.20;;;;;;5050112;28;20564;-79
2023/02/09 12:12:08;;;;;;;0.10;0.10;;;17.40;96.30;;;;;;5050035;28;20032;-80
2023/02/09 12:14:46;;;;;;;0.00;0.00;;;17.30;96.20;;;;;;5051004;28;20025;-76
2023/02/09 12:17:24;;;;;;;0.00;0.00;;;17.00;96.10;;;;;;5049242;28;20078;-72
2023/02/09 12:19:59;;;;;;;0.00;0.00;;;16.70;96.10;;;;;;5044677;28;20025;-70
2023/02/09 12:22:33;;;;;;;0.00;0.00;;;16.40;95.90;;;;;;5050774;28;20048;-75
2023/02/09 12:25:11;;;;;;;0.00;0.00;;;16.10;96.10;;;;;;5050607;28;20113;-74
2023/02/09 12:28:03;;;;;;;0.00;0.00;;;16.00;96.30;;;;;;5050011;28;20021;-76
2023/02/09 12:30:41;;;;;;;0.00;0.00;;;15.90;96.10;;;;;;5049765;28;20040;-75
2023/02/09 12:33:15;;;;;;;0.00;0.00;;;15.60;96.00;;;;;;5050571;28;20032;-75
2023/02/09 12:35:41;;;;;;;0.00;0.00;;;15.50;96.10;;;;;;5048951;28;20036;-73
2023/02/09 12:38:15;;;;;;;0.00;0.00;;;15.40;96.20;;;;;;5050555;28;20035;-76
2023/02/09 12:40:41;;;;;;;0.00;0.00;;;15.50;96.30;;;;;;5051402;28;20029;-76
2023/02/09 12:43:23;;;;;;;0.00;0.00;;;15.60;96.60;;;;;;5050991;28;20525;-75
2023/02/09 12:46:13;;;;;;;0.50;0.43;;;15.60;96.30;;;;;;5048929;28;20127;-75
2023/02/09 12:48:50;;;;;;;0.00;0.00;;;15.40;96.10;;;;;;5050010;28;20060;-73
2023/02/09 12:51:38;;;;;;;0.00;0.00;;;15.30;96.00;;;;;;5050115;28;20035;-76
2023/02/09 12:54:37;;;;;;;0.00;0.00;;;15.10;95.70;;;;;;5049877;28;20033;-74
2023/02/09 12:57:15;;;;;;;0.00;0.00;;;14.80;95.80;;;;;;5048332;28;20159;-75
2023/02/09 13:00:03;;;;;;;0.00;0.00;;;14.80;96.50;;;;;;5049612;28;20385;-75